createdAt,value
2019-01-28T00:01:40.177Z,3.40
2019-01-28T00:04:06.871Z,3.40
2019-01-28T00:06:37.391Z,3.30
2019-01-28T00:09:26.424Z,3.40
2019-01-28T00:12:33.860Z,3.30
2019-01-28T00:15:15.143Z,3.40
2019-01-28T00:17:51.548Z,3.40
2019-01-28T00:20:32.010Z,3.40
2019-01-28T00:23:17.851Z,3.30
2019-01-28T00:25:50.932Z,3.40
2019-01-28T00:28:17.187Z,3.30
2019-01-28T00:30:51.220Z,3.40
2019-01-28T00:33:18.268Z,3.30
2019-01-28T00:35:56.001Z,3.30
2019-01-28T00:38:24.159Z,3.20
2019-01-28T00:40:53.474Z,3.20
2019-01-28T00:43:23.464Z,3.30
2019-01-28T00:45:52.624Z,3.20
2019-01-28T00:48:47.702Z,3.20
2019-01-28T00:51:17.788Z,3.20
2019-01-28T00:53:50.891Z,3.20
2019-01-28T00:56:34.669Z,3.20
2019-01-28T00:59:02.786Z,3.30
2019-01-28T01:01:35.065Z,3.30
2019-01-28T01:04:01.213Z,3.30
2019-01-28T01:06:30.813Z,3.30
2019-01-28T01:09:05.936Z,3.30
2019-01-28T01:11:33.317Z,3.30
2019-01-28T01:14:00.327Z,3.30
2019-01-28T01:16:31.523Z,3.30
2019-01-28T01:19:15.128Z,3.30
2019-01-28T01:21:43.279Z,3.30
2019-01-28T01:24:09.321Z,3.30
2019-01-28T01:26:35.400Z,3.20
2019-01-28T01:29:03.457Z,3.20
2019-01-28T01:31:29.618Z,3.20
2019-01-28T01:34:09.996Z,3.20
2019-01-28T01:36:36.088Z,3.20
2019-01-28T01:39:05.308Z,3.20
2019-01-28T01:41:34.729Z,3.30
2019-01-28T01:44:16.952Z,3.30
2019-01-28T01:46:57.276Z,3.30
2019-01-28T01:49:29.421Z,3.30
2019-01-28T01:52:03.413Z,3.30
2019-01-28T01:54:42.632Z,3.30
2019-01-28T01:57:14.635Z,3.30
2019-01-28T01:59:59.121Z,3.20
2019-01-28T02:02:34.438Z,3.20
2019-01-28T02:05:02.702Z,3.20
2019-01-28T02:07:30.144Z,3.20
2019-01-28T02:09:57.174Z,3.20
2019-01-28T02:12:23.200Z,3.20
2019-01-28T02:14:50.285Z,3.30
2019-01-28T02:17:32.791Z,3.30
2019-01-28T02:19:58.911Z,3.30
2019-01-28T02:22:25.150Z,3.30
2019-01-28T02:24:51.299Z,3.40
2019-01-28T02:27:19.416Z,3.30
2019-01-28T02:29:59.578Z,3.30
2019-01-28T02:32:43.897Z,3.30
2019-01-28T02:35:21.280Z,3.30
2019-01-28T02:37:55.552Z,3.30
2019-01-28T02:40:21.669Z,3.30
2019-01-28T02:42:50.660Z,3.30
2019-01-28T02:45:19.861Z,3.30
2019-01-28T02:47:54.097Z,3.30
2019-01-28T02:50:21.218Z,3.30
2019-01-28T02:52:51.332Z,3.30
2019-01-28T02:55:18.863Z,3.30
2019-01-28T02:57:45.412Z,3.30
2019-01-28T03:00:20.623Z,3.30
2019-01-28T03:02:47.961Z,3.30
2019-01-28T03:05:15.246Z,3.30
2019-01-28T03:07:42.425Z,3.30
2019-01-28T03:10:26.984Z,3.30
2019-01-28T03:12:54.136Z,3.30
2019-01-28T03:15:21.391Z,3.30
2019-01-28T03:18:07.985Z,3.30
2019-01-28T03:20:39.207Z,3.30
2019-01-28T03:23:07.495Z,3.40
2019-01-28T03:25:37.278Z,3.40
2019-01-28T03:28:04.486Z,3.40
2019-01-28T03:30:30.647Z,3.40
2019-01-28T03:33:16.095Z,3.40
2019-01-28T03:36:02.336Z,3.40
2019-01-28T03:38:44.481Z,3.30
2019-01-28T03:41:10.626Z,3.30
2019-01-28T03:43:38.816Z,3.30
2019-01-28T03:46:05.951Z,3.30
2019-01-28T03:49:21.710Z,3.30
2019-01-28T03:51:55.152Z,3.30
2019-01-28T03:54:21.378Z,3.20
2019-01-28T03:57:09.182Z,3.20
2019-01-28T03:59:36.428Z,3.20
2019-01-28T04:02:09.420Z,3.20
2019-01-28T04:04:35.641Z,3.20
2019-01-28T04:07:02.982Z,3.20
2019-01-28T04:09:29.169Z,3.30
2019-01-28T04:12:05.390Z,3.30
2019-01-28T04:14:32.540Z,3.30
2019-01-28T04:16:58.724Z,3.20
2019-01-28T04:19:32.901Z,3.30
2019-01-28T04:22:17.279Z,3.30
2019-01-28T04:24:45.335Z,3.20
2019-01-28T04:27:11.510Z,3.30
2019-01-28T04:29:47.545Z,3.20
2019-01-28T04:32:17.846Z,3.20
2019-01-28T04:34:52.187Z,3.20
2019-01-28T04:37:18.235Z,3.30
2019-01-28T04:39:44.360Z,3.30
2019-01-28T04:42:24.715Z,3.30
2019-01-28T04:45:01.048Z,3.30
2019-01-28T04:47:31.166Z,3.30
2019-01-28T04:49:57.233Z,3.30
2019-01-28T04:52:24.380Z,3.30
2019-01-28T04:54:59.160Z,3.20
2019-01-28T04:57:32.499Z,3.20
2019-01-28T05:00:18.206Z,3.20
2019-01-28T05:02:47.343Z,3.10
2019-01-28T05:05:13.716Z,3.20
2019-01-28T05:07:57.924Z,3.20
2019-01-28T05:10:24.148Z,3.20
2019-01-28T05:13:06.229Z,3.20
2019-01-28T05:15:33.305Z,3.20
2019-01-28T05:18:11.791Z,3.10
2019-01-28T05:20:45.078Z,3.10
2019-01-28T05:23:11.156Z,3.10
2019-01-28T05:25:45.289Z,3.10
2019-01-28T05:28:21.460Z,3.00
2019-01-28T05:30:51.225Z,3.10
2019-01-28T05:33:27.299Z,3.10
2019-01-28T05:35:54.983Z,3.10
2019-01-28T05:38:22.135Z,3.10
2019-01-28T05:40:51.563Z,3.10
2019-01-28T05:43:32.805Z,3.20
2019-01-28T05:45:59.176Z,3.10
2019-01-28T05:48:33.479Z,3.20
2019-01-28T05:51:00.703Z,3.20
2019-01-28T05:53:43.848Z,3.10
2019-01-28T05:56:16.774Z,3.10
2019-01-28T05:58:51.746Z,3.20
2019-01-28T06:01:18.879Z,3.20
2019-01-28T06:03:53.710Z,3.20
2019-01-28T06:06:21.891Z,3.20
2019-01-28T06:08:48.915Z,3.20
2019-01-28T06:11:15.048Z,3.20
2019-01-28T06:14:00.344Z,3.10
2019-01-28T06:16:26.415Z,3.10
2019-01-28T06:18:58.720Z,3.10
2019-01-28T06:21:29.092Z,3.10
2019-01-28T06:23:57.155Z,3.10
2019-01-28T06:26:24.205Z,3.00
2019-01-28T06:28:58.547Z,3.00
2019-01-28T06:31:34.708Z,2.90
2019-01-28T06:34:00.807Z,3.00
2019-01-28T06:36:32.955Z,2.90
2019-01-28T06:39:11.501Z,2.90
2019-01-28T06:41:51.158Z,2.90
2019-01-28T06:44:36.200Z,2.90
2019-01-28T06:47:03.643Z,2.90
2019-01-28T06:49:30.675Z,2.90
2019-01-28T06:52:04.117Z,2.90
2019-01-28T06:54:36.252Z,3.00
2019-01-28T06:57:06.420Z,2.90
2019-01-28T06:59:50.987Z,2.80
2019-01-28T07:02:23.190Z,2.80
2019-01-28T07:04:51.720Z,2.70
2019-01-28T07:07:20.980Z,3.00
2019-01-28T07:09:52.036Z,2.90
2019-01-28T07:12:24.044Z,2.80
2019-01-28T07:14:57.860Z,2.80
2019-01-28T07:17:29.720Z,2.70
2019-01-28T07:19:56.988Z,2.60
2019-01-28T07:22:24.057Z,2.60
2019-01-28T07:25:15.352Z,2.50
2019-01-28T07:27:47.554Z,2.50
2019-01-28T07:30:37.940Z,2.50
2019-01-28T07:33:07.432Z,2.50
2019-01-28T07:35:58.491Z,2.50
2019-01-28T07:38:33.306Z,2.50
2019-01-28T07:41:03.123Z,2.50
2019-01-28T07:43:39.515Z,2.50
2019-01-28T07:46:11.588Z,2.40
2019-01-28T07:48:37.739Z,2.40
2019-01-28T07:51:11.802Z,2.40
2019-01-28T07:53:39.929Z,2.40
2019-01-28T07:56:12.202Z,2.50
2019-01-28T07:58:47.646Z,2.50
2019-01-28T08:01:15.568Z,2.60
2019-01-28T08:03:47.660Z,2.60
2019-01-28T08:06:13.705Z,2.60
2019-01-28T08:08:46.899Z,2.60
2019-01-28T08:11:19.940Z,2.60
2019-01-28T08:13:57.333Z,2.70
2019-01-28T08:16:37.974Z,2.80
2019-01-28T08:19:10.837Z,2.80
2019-01-28T08:21:40.563Z,2.80
2019-01-28T08:24:16.105Z,2.90
2019-01-28T08:26:53.498Z,2.90
2019-01-28T08:29:24.262Z,2.90
2019-01-28T08:31:52.783Z,3.00
2019-01-28T08:34:20.851Z,3.00
2019-01-28T08:36:59.236Z,3.00
2019-01-28T08:39:27.397Z,2.90
2019-01-28T08:42:11.005Z,3.00
2019-01-28T08:44:42.906Z,2.90
2019-01-28T08:47:21.122Z,3.00
2019-01-28T08:49:48.228Z,2.90
2019-01-28T08:52:15.421Z,2.90
2019-01-28T08:54:42.716Z,3.00
2019-01-28T08:57:21.185Z,3.50
2019-01-28T08:59:50.224Z,4.00
2019-01-28T09:02:35.280Z,3.90
2019-01-28T09:05:25.435Z,3.50
2019-01-28T09:07:56.695Z,3.20
2019-01-28T09:10:33.672Z,3.00
2019-01-28T09:13:15.253Z,3.00
2019-01-28T09:15:46.394Z,2.90
2019-01-28T09:18:14.544Z,2.80
2019-01-28T09:21:23.560Z,2.80
2019-01-28T09:24:05.721Z,2.80
2019-01-28T09:26:31.893Z,2.80
2019-01-28T09:29:31.883Z,2.70
2019-01-28T09:32:12.053Z,2.60
2019-01-28T09:34:42.129Z,2.50
2019-01-28T09:37:08.295Z,2.60
2019-01-28T09:39:42.526Z,2.50
2019-01-28T09:42:30.504Z,2.50
2019-01-28T09:44:57.823Z,2.50
2019-01-28T09:47:31.693Z,2.50
2019-01-28T09:50:15.051Z,2.50
2019-01-28T09:52:41.369Z,2.40
2019-01-28T09:55:11.939Z,2.40
2019-01-28T09:57:48.091Z,2.40
2019-01-28T10:00:29.627Z,2.50
2019-01-28T10:02:55.782Z,2.50
2019-01-28T10:05:22.107Z,2.50
2019-01-28T10:08:00.521Z,2.50
2019-01-28T10:10:52.816Z,2.50
2019-01-28T10:13:20.753Z,2.50
2019-01-28T10:15:49.891Z,2.50
2019-01-28T10:18:49.049Z,2.50
2019-01-28T10:21:18.189Z,2.50
2019-01-28T10:23:47.017Z,2.50
2019-01-28T10:26:18.204Z,2.50
2019-01-28T10:29:11.868Z,2.50
2019-01-28T10:31:44.011Z,2.60
2019-01-28T10:34:12.082Z,2.60
2019-01-28T10:36:40.327Z,2.70
2019-01-28T10:39:22.623Z,2.70
2019-01-28T10:42:03.698Z,2.70
2019-01-28T10:45:23.578Z,2.70
2019-01-28T10:48:00.980Z,2.70
2019-01-28T10:50:40.266Z,2.70
2019-01-28T10:53:07.761Z,2.70
2019-01-28T10:55:46.047Z,2.80
2019-01-28T10:58:22.012Z,2.80
2019-01-28T11:00:55.521Z,2.90
2019-01-28T11:03:22.990Z,2.90
2019-01-28T11:06:18.294Z,3.00
2019-01-28T11:08:47.710Z,2.90
2019-01-28T11:11:16.034Z,3.00
2019-01-28T11:13:45.428Z,3.00
2019-01-28T11:16:14.551Z,3.00
2019-01-28T11:18:42.261Z,2.90
2019-01-28T11:21:15.249Z,3.00
2019-01-28T11:23:50.670Z,3.00
2019-01-28T11:26:20.907Z,3.00
2019-01-28T11:28:55.712Z,3.00
2019-01-28T11:31:21.937Z,3.00
2019-01-28T11:34:13.055Z,3.00
2019-01-28T11:36:48.612Z,3.00
2019-01-28T11:39:33.066Z,3.10
2019-01-28T11:42:06.493Z,3.00
2019-01-28T11:45:14.944Z,3.00
2019-01-28T11:47:42.197Z,3.00
2019-01-28T11:50:15.389Z,3.00
2019-01-28T11:52:47.700Z,3.10
2019-01-28T11:55:21.874Z,3.10
2019-01-28T11:58:25.863Z,3.10
2019-01-28T12:00:57.015Z,3.30
2019-01-28T12:03:42.586Z,3.30
2019-01-28T12:06:23.044Z,3.30
2019-01-28T12:09:44.466Z,3.40
2019-01-28T12:12:21.194Z,3.50
2019-01-28T12:14:53.084Z,3.50
2019-01-28T12:17:27.092Z,3.60
2019-01-28T12:19:53.323Z,3.60
2019-01-28T12:22:55.391Z,3.60
2019-01-28T12:25:22.465Z,3.60
2019-01-28T12:27:52.525Z,3.70
2019-01-28T12:30:31.829Z,3.70
2019-01-28T12:33:14.422Z,3.70
2019-01-28T12:35:44.830Z,3.70
2019-01-28T12:38:16.445Z,3.80
2019-01-28T12:41:17.598Z,3.80
2019-01-28T12:43:51.350Z,3.80
2019-01-28T12:46:31.486Z,3.90
2019-01-28T12:49:04.888Z,3.90
2019-01-28T12:51:56.823Z,3.90
2019-01-28T12:54:22.848Z,3.90
2019-01-28T12:56:54.954Z,4.00
2019-01-28T12:59:33.147Z,4.00
2019-01-28T13:02:05.440Z,4.10
2019-01-28T13:04:42.482Z,4.20
2019-01-28T13:07:08.731Z,4.20
2019-01-28T13:09:44.147Z,4.20
2019-01-28T13:12:19.390Z,4.20
2019-01-28T13:15:07.419Z,4.20
2019-01-28T13:17:33.433Z,4.10
2019-01-28T13:20:13.032Z,4.20
2019-01-28T13:22:44.847Z,4.20
2019-01-28T13:25:18.570Z,4.10
2019-01-28T13:27:53.723Z,4.10
2019-01-28T13:30:30.899Z,4.10
2019-01-28T13:33:13.184Z,4.10
2019-01-28T13:35:43.473Z,4.10
2019-01-28T13:38:25.820Z,4.10
2019-01-28T13:41:03.331Z,4.10
2019-01-28T13:43:31.586Z,4.10
2019-01-28T13:45:59.727Z,4.20
2019-01-28T13:48:50.820Z,4.10
2019-01-28T13:51:34.988Z,4.10
2019-01-28T13:54:01.120Z,4.10
2019-01-28T13:56:28.172Z,4.10
2019-01-28T13:59:07.055Z,4.10
2019-01-28T14:01:55.418Z,4.00
2019-01-28T14:04:30.476Z,4.10
2019-01-28T14:06:57.606Z,4.10
2019-01-28T14:09:37.200Z,4.10
2019-01-28T14:12:10.442Z,4.20
2019-01-28T14:14:37.610Z,4.10
2019-01-28T14:17:05.690Z,4.20
2019-01-28T14:19:46.085Z,4.20
2019-01-28T14:22:08.610Z,4.30
2019-01-28T14:24:35.756Z,4.30
2019-01-28T14:27:07.991Z,4.40
2019-01-28T14:29:40.283Z,4.40
2019-01-28T14:32:20.457Z,4.40
2019-01-28T14:34:51.800Z,4.50
2019-01-28T14:37:28.115Z,4.50
2019-01-28T14:40:08.440Z,4.50
2019-01-28T14:43:07.717Z,4.50
2019-01-28T14:45:51.114Z,4.50
2019-01-28T14:48:18.437Z,4.50
2019-01-28T14:50:51.755Z,4.50
2019-01-28T14:53:25.784Z,4.50
2019-01-28T14:56:03.211Z,4.50
2019-01-28T14:58:39.149Z,4.50
2019-01-28T15:01:07.313Z,4.50
2019-01-28T15:03:53.649Z,4.50
2019-01-28T15:06:25.584Z,4.50
2019-01-28T15:08:53.121Z,4.50
2019-01-28T15:11:37.645Z,4.50
2019-01-28T15:14:08.695Z,4.50
2019-01-28T15:16:37.676Z,4.50
2019-01-28T15:19:15.782Z,4.40
2019-01-28T15:21:48.109Z,4.50
2019-01-28T15:24:30.456Z,4.50
2019-01-28T15:27:05.451Z,4.40
2019-01-28T15:29:31.456Z,4.40
2019-01-28T15:32:03.684Z,4.40
2019-01-28T15:34:31.791Z,4.40
2019-01-28T15:37:26.024Z,4.50
2019-01-28T15:39:54.261Z,4.50
2019-01-28T15:42:32.475Z,4.40
2019-01-28T15:45:16.041Z,4.40
2019-01-28T15:47:44.253Z,4.40
2019-01-28T15:50:14.518Z,4.50
2019-01-28T15:52:46.675Z,4.50
2019-01-28T15:55:20.948Z,4.50
2019-01-28T15:57:59.415Z,4.50
2019-01-28T16:00:35.548Z,4.50
2019-01-28T16:03:20.477Z,4.50
2019-01-28T16:06:03.155Z,4.50
2019-01-28T16:08:29.232Z,4.50
2019-01-28T16:10:56.678Z,4.50
2019-01-28T16:13:26.787Z,4.40
2019-01-28T16:16:05.359Z,4.40
2019-01-28T16:18:43.495Z,4.50
2019-01-28T16:21:41.928Z,4.40
2019-01-28T16:24:28.257Z,4.40
2019-01-28T16:27:05.613Z,4.40
2019-01-28T16:29:35.711Z,4.40
2019-01-28T16:32:24.443Z,4.50
2019-01-28T16:34:51.548Z,4.40
2019-01-28T16:37:21.970Z,4.50
2019-01-28T16:39:48.115Z,4.50
2019-01-28T16:42:14.228Z,4.50
2019-01-28T16:44:41.232Z,4.40
2019-01-28T16:47:15.350Z,4.40
2019-01-28T16:49:46.480Z,4.40
2019-01-28T16:52:12.657Z,4.40
2019-01-28T16:54:38.786Z,4.40
2019-01-28T16:58:05.652Z,4.40
2019-01-28T17:00:37.130Z,4.40
2019-01-28T17:03:05.118Z,4.30
2019-01-28T17:05:31.572Z,4.30
2019-01-28T17:08:08.974Z,4.30
2019-01-28T17:10:43.195Z,4.40
2019-01-28T17:13:26.637Z,4.40
2019-01-28T17:15:52.653Z,4.40
2019-01-28T17:18:19.018Z,4.40
2019-01-28T17:20:45.104Z,4.40
2019-01-28T17:23:23.344Z,4.40
2019-01-28T17:25:52.654Z,4.30
2019-01-28T17:28:19.097Z,4.30
2019-01-28T17:34:26.433Z,4.30
2019-01-28T17:36:56.668Z,4.30
2019-01-28T17:39:38.503Z,4.20
2019-01-28T17:42:12.402Z,4.20
2019-01-28T17:44:54.613Z,4.20
2019-01-28T17:47:26.680Z,4.20
2019-01-28T17:50:01.489Z,4.20
2019-01-28T17:52:48.621Z,4.20
2019-01-28T17:55:19.975Z,4.10
2019-01-28T17:57:57.499Z,4.10
2019-01-28T18:00:42.584Z,4.10
2019-01-28T18:03:56.176Z,4.10
2019-01-28T18:06:22.340Z,4.10
2019-01-28T18:08:56.692Z,4.20
2019-01-28T18:11:47.737Z,4.20
2019-01-28T18:14:15.875Z,4.10
2019-01-28T18:16:51.748Z,4.10
2019-01-28T18:19:23.639Z,4.00
2019-01-28T18:22:14.492Z,4.00
2019-01-28T18:24:40.622Z,4.10
2019-01-28T18:27:06.666Z,4.10
2019-01-28T18:29:38.795Z,4.10
2019-01-28T18:32:15.740Z,4.00
2019-01-28T18:34:48.188Z,4.00
2019-01-28T18:37:17.142Z,4.00
2019-01-28T18:39:49.469Z,4.00
2019-01-28T18:42:16.511Z,4.00
2019-01-28T18:44:45.459Z,4.00
2019-01-28T18:47:25.926Z,4.00
2019-01-28T18:49:55.182Z,4.00
2019-01-28T18:52:29.355Z,4.00
2019-01-28T18:55:01.322Z,4.00
2019-01-28T18:57:49.137Z,4.00
2019-01-28T19:00:50.194Z,4.10
2019-01-28T19:03:18.456Z,4.10
2019-01-28T19:06:01.468Z,4.10
2019-01-28T19:08:55.157Z,4.10
2019-01-28T19:11:36.475Z,4.10
2019-01-28T19:14:32.399Z,4.10
2019-01-28T19:17:14.223Z,4.10
2019-01-28T19:19:59.014Z,4.00
2019-01-28T19:22:26.169Z,4.00
2019-01-28T19:24:56.831Z,3.90
2019-01-28T19:27:33.224Z,3.90
2019-01-28T19:30:34.668Z,3.80
2019-01-28T19:33:08.732Z,3.90
2019-01-28T19:35:46.966Z,3.70
2019-01-28T19:38:12.993Z,3.70
2019-01-28T19:40:39.163Z,3.70
2019-01-28T19:43:08.657Z,3.80
2019-01-28T19:45:40.713Z,3.80
2019-01-28T19:48:07.824Z,3.80
2019-01-28T19:51:15.554Z,3.80
2019-01-28T19:53:42.097Z,3.70
2019-01-28T19:56:21.222Z,3.60
2019-01-28T19:58:51.335Z,3.60
2019-01-28T20:01:42.356Z,3.60
2019-01-28T20:04:41.619Z,3.50
2019-01-28T20:07:11.773Z,3.50
2019-01-28T20:09:38.676Z,3.60
2019-01-28T20:12:19.689Z,3.60
2019-01-28T20:15:07.934Z,3.60
2019-01-28T20:17:36.119Z,3.60
2019-01-28T20:20:05.730Z,3.70
2019-01-28T20:22:33.148Z,3.70
2019-01-28T20:25:01.535Z,3.70
2019-01-28T20:27:36.763Z,3.70
2019-01-28T20:30:24.810Z,3.70
2019-01-28T20:32:56.977Z,3.80
2019-01-28T20:35:27.168Z,3.80
2019-01-28T20:38:05.255Z,3.80
2019-01-28T20:40:47.865Z,3.80
2019-01-28T20:43:24.092Z,3.80
2019-01-28T20:45:55.855Z,3.80
2019-01-28T20:48:36.137Z,3.80
2019-01-28T20:51:19.611Z,3.80
2019-01-28T20:53:55.452Z,3.80
2019-01-28T20:56:30.590Z,3.80
2019-01-28T20:59:04.738Z,3.90
2019-01-28T21:01:41.360Z,3.90
2019-01-28T21:04:18.544Z,3.90
2019-01-28T21:06:45.753Z,3.90
2019-01-28T21:09:28.998Z,3.90
2019-01-28T21:12:03.564Z,4.00
2019-01-28T21:14:44.932Z,3.90
2019-01-28T21:17:25.313Z,3.90
2019-01-28T21:20:03.482Z,3.90
2019-01-28T21:22:30.598Z,4.00
2019-01-28T21:24:59.793Z,4.00
2019-01-28T21:27:49.389Z,3.90
2019-01-28T21:30:31.703Z,4.00
2019-01-28T21:33:06.131Z,3.90
2019-01-28T21:35:46.426Z,3.90
2019-01-28T21:38:32.756Z,3.90
2019-01-28T21:40:58.951Z,4.00
2019-01-28T21:43:26.447Z,4.00
2019-01-28T21:45:54.360Z,4.00
2019-01-28T21:48:29.809Z,4.00
2019-01-28T21:51:24.115Z,3.90
2019-01-28T21:53:57.343Z,3.90
2019-01-28T21:56:34.341Z,3.90
2019-01-28T21:59:04.829Z,3.90
2019-01-28T22:01:34.969Z,3.90
2019-01-28T22:04:02.125Z,3.90
2019-01-28T22:06:30.300Z,3.90
2019-01-28T22:09:01.531Z,3.90
2019-01-28T22:11:28.183Z,3.90
2019-01-28T22:14:00.101Z,3.90
2019-01-28T22:16:32.477Z,3.90
2019-01-28T22:18:59.627Z,3.90
2019-01-28T22:21:26.937Z,3.90
2019-01-28T22:23:53.062Z,3.80
2019-01-28T22:26:26.278Z,3.70
2019-01-28T22:29:01.155Z,3.60
2019-01-28T22:31:29.388Z,3.60
2019-01-28T22:34:15.032Z,3.60
2019-01-28T22:36:51.110Z,3.60
2019-01-28T22:39:40.773Z,3.70
2019-01-28T22:42:09.551Z,3.60
2019-01-28T22:44:50.683Z,3.60
2019-01-28T22:47:26.654Z,3.60
2019-01-28T22:49:58.120Z,3.70
2019-01-28T22:52:30.319Z,3.60
2019-01-28T22:55:17.448Z,3.60
2019-01-28T22:58:29.413Z,3.50
2019-01-28T23:01:16.443Z,3.50
2019-01-28T23:03:48.204Z,3.40
2019-01-28T23:06:20.535Z,3.50
2019-01-28T23:09:08.106Z,3.50
2019-01-28T23:11:34.280Z,3.50
2019-01-28T23:14:03.976Z,3.50
2019-01-28T23:16:33.320Z,3.50
2019-01-28T23:19:02.909Z,3.50
2019-01-28T23:21:38.065Z,3.50
2019-01-28T23:24:05.126Z,3.60
2019-01-28T23:26:50.661Z,3.60
2019-01-28T23:29:18.413Z,3.60
2019-01-28T23:31:48.396Z,3.50
2019-01-28T23:34:21.621Z,3.50
2019-01-28T23:36:49.143Z,3.50
2019-01-28T23:39:26.629Z,3.40
2019-01-28T23:41:52.800Z,3.40
2019-01-28T23:45:08.864Z,3.40
2019-01-28T23:47:35.060Z,3.50
2019-01-28T23:50:01.228Z,3.50
2019-01-28T23:52:35.305Z,3.40
2019-01-28T23:55:22.400Z,3.40
2019-01-28T23:58:11.143Z,3.30
